sensor_id;sensor_type;location;lat;lon;timestamp;pressure;altitude;pressure_sealevel;temperature;humidity
30347;BME280;19047;44.782;20.468;2022-09-09T00:02:35;100481.38;;;24.27;72.96
30347;BME280;19047;44.782;20.468;2022-09-09T00:09:32;100488.91;;;24.25;73.36
30347;BME280;19047;44.782;20.468;2022-09-09T00:16:31;100479.00;;;24.20;73.46
30347;BME280;19047;44.782;20.468;2022-09-09T00:20:13;100477.16;;;24.17;73.36
30347;BME280;19047;44.782;20.468;2022-09-09T00:23:32;100481.31;;;24.16;73.21
30347;BME280;19047;44.782;20.468;2022-09-09T00:27:21;100485.97;;;24.14;73.04
30347;BME280;19047;44.782;20.468;2022-09-09T00:30:40;100486.50;;;24.12;73.23
30347;BME280;19047;44.782;20.468;2022-09-09T00:37:29;100488.81;;;24.08;72.78
30347;BME280;19047;44.782;20.468;2022-09-09T00:41:21;100495.84;;;24.07;72.80
30347;BME280;19047;44.782;20.468;2022-09-09T00:44:44;100500.75;;;24.07;72.82
30347;BME280;19047;44.782;20.468;2022-09-09T00:48:20;100496.34;;;24.06;72.95
30347;BME280;19047;44.782;20.468;2022-09-09T00:55:16;100499.72;;;24.04;73.04
30347;BME280;19047;44.782;20.468;2022-09-09T00:58:35;100492.44;;;24.03;73.64
30347;BME280;19047;44.782;20.468;2022-09-09T01:02:13;100495.28;;;24.03;73.94
30347;BME280;19047;44.782;20.468;2022-09-09T01:09:24;100497.09;;;24.00;74.50
30347;BME280;19047;44.782;20.468;2022-09-09T01:12:42;100509.06;;;23.99;74.41
30347;BME280;19047;44.782;20.468;2022-09-09T01:16:12;100511.63;;;23.97;74.69
30347;BME280;19047;44.782;20.468;2022-09-09T01:19:54;100514.72;;;23.93;75.05
30347;BME280;19047;44.782;20.468;2022-09-09T01:27:08;100527.69;;;23.89;75.04
30347;BME280;19047;44.782;20.468;2022-09-09T01:30:40;100529.50;;;23.86;74.85
30347;BME280;19047;44.782;20.468;2022-09-09T01:33:59;100537.78;;;23.84;75.16
30347;BME280;19047;44.782;20.468;2022-09-09T01:37:29;100518.47;;;23.68;74.93
30347;BME280;19047;44.782;20.468;2022-09-09T01:40:46;100535.16;;;23.81;74.94
30347;BME280;19047;44.782;20.468;2022-09-09T01:44:26;100560.88;;;23.81;74.87
30347;BME280;19047;44.782;20.468;2022-09-09T01:47:44;100558.03;;;23.81;74.69
30347;BME280;19047;44.782;20.468;2022-09-09T01:51:31;100556.19;;;23.78;74.74
30347;BME280;19047;44.782;20.468;2022-09-09T01:54:51;100552.84;;;23.79;74.37
30347;BME280;19047;44.782;20.468;2022-09-09T02:02:39;100562.94;;;23.80;74.28
30347;BME280;19047;44.782;20.468;2022-09-09T02:06:31;100573.09;;;23.81;74.41
30347;BME280;19047;44.782;20.468;2022-09-09T02:10:19;100560.38;;;23.82;74.62
30347;BME280;19047;44.782;20.468;2022-09-09T02:14:04;100563.50;;;23.84;74.50
30347;BME280;19047;44.782;20.468;2022-09-09T02:17:29;100561.72;;;23.87;74.49
30347;BME280;19047;44.782;20.468;2022-09-09T02:21:04;100561.44;;;23.85;74.67
30347;BME280;19047;44.782;20.468;2022-09-09T02:24:22;100563.28;;;23.88;74.70
30347;BME280;19047;44.782;20.468;2022-09-09T02:28:03;100565.63;;;23.89;74.52
30347;BME280;19047;44.782;20.468;2022-09-09T02:31:22;100568.75;;;23.91;74.65
30347;BME280;19047;44.782;20.468;2022-09-09T02:35:05;100567.44;;;23.92;74.66
30347;BME280;19047;44.782;20.468;2022-09-09T02:38:36;100552.66;;;23.94;74.67
30347;BME280;19047;44.782;20.468;2022-09-09T02:41:56;100548.50;;;23.95;74.54
30347;BME280;19047;44.782;20.468;2022-09-09T02:45:30;100536.06;;;23.98;74.38
30347;BME280;19047;44.782;20.468;2022-09-09T02:48:58;100539.72;;;23.98;74.46
30347;BME280;19047;44.782;20.468;2022-09-09T02:52:38;100506.06;;;23.77;74.35
30347;BME280;19047;44.782;20.468;2022-09-09T02:56:07;100536.09;;;24.03;74.09
30347;BME280;19047;44.782;20.468;2022-09-09T02:59:39;100534.78;;;24.05;73.91
30347;BME280;19047;44.782;20.468;2022-09-09T03:02:57;100537.41;;;24.08;74.00
30347;BME280;19047;44.782;20.468;2022-09-09T03:06:28;100548.63;;;24.12;73.65
30347;BME280;19047;44.782;20.468;2022-09-09T03:09:56;100531.47;;;24.12;73.69
30347;BME280;19047;44.782;20.468;2022-09-09T03:13:27;100532.50;;;24.14;73.43
30347;BME280;19047;44.782;20.468;2022-09-09T03:16:45;100547.34;;;24.18;73.19
30347;BME280;19047;44.782;20.468;2022-09-09T03:20:14;100551.78;;;24.19;73.36
30347;BME280;19047;44.782;20.468;2022-09-09T03:23:31;100569.47;;;24.23;73.12
30347;BME280;19047;44.782;20.468;2022-09-09T03:27:02;100570.25;;;24.24;73.08
30347;BME280;19047;44.782;20.468;2022-09-09T03:30:22;100577.03;;;24.26;72.83
30347;BME280;19047;44.782;20.468;2022-09-09T03:33:52;100583.03;;;24.28;72.93
30347;BME280;19047;44.782;20.468;2022-09-09T03:37:13;100587.47;;;24.29;72.73
30347;BME280;19047;44.782;20.468;2022-09-09T03:40:52;100589.81;;;24.31;72.85
30347;BME280;19047;44.782;20.468;2022-09-09T03:44:14;100596.59;;;24.33;72.83
30347;BME280;19047;44.782;20.468;2022-09-09T03:47:44;100597.00;;;24.21;72.53
30347;BME280;19047;44.782;20.468;2022-09-09T03:51:01;100611.16;;;24.35;72.77
30347;BME280;19047;44.782;20.468;2022-09-09T03:54:30;100620.78;;;24.38;72.60
30347;BME280;19047;44.782;20.468;2022-09-09T03:57:48;100627.28;;;24.38;72.58
30347;BME280;19047;44.782;20.468;2022-09-09T04:01:19;100641.09;;;24.40;72.67
30347;BME280;19047;44.782;20.468;2022-09-09T04:04:36;100659.81;;;24.41;72.94
30347;BME280;19047;44.782;20.468;2022-09-09T04:08:06;100673.56;;;24.37;73.32
30347;BME280;19047;44.782;20.468;2022-09-09T04:11:23;100678.47;;;24.31;73.63
30347;BME280;19047;44.782;20.468;2022-09-09T04:14:54;100677.34;;;24.23;73.83
30347;BME280;19047;44.782;20.468;2022-09-09T04:18:11;100684.53;;;24.13;74.06
30347;BME280;19047;44.782;20.468;2022-09-09T04:21:41;100688.06;;;24.02;74.42
30347;BME280;19047;44.782;20.468;2022-09-09T04:24:58;100698.13;;;23.92;74.85
30347;BME280;19047;44.782;20.468;2022-09-09T04:28:30;100703.75;;;23.81;75.19
30347;BME280;19047;44.782;20.468;2022-09-09T04:31:52;100708.34;;;23.73;75.59
30347;BME280;19047;44.782;20.468;2022-09-09T04:35:21;100702.81;;;23.63;75.62
30347;BME280;19047;44.782;20.468;2022-09-09T04:38:52;100698.56;;;23.53;75.88
30347;BME280;19047;44.782;20.468;2022-09-09T04:42:09;100649.28;;;23.12;76.14
30347;BME280;19047;44.782;20.468;2022-09-09T04:45:43;100690.31;;;23.35;76.41
30347;BME280;19047;44.782;20.468;2022-09-09T04:49:02;100677.72;;;23.27;76.60
30347;BME280;19047;44.782;20.468;2022-09-09T04:52:34;100680.75;;;23.18;77.11
30347;BME280;19047;44.782;20.468;2022-09-09T04:55:51;100671.06;;;23.10;77.47
30347;BME280;19047;44.782;20.468;2022-09-09T04:59:26;100666.22;;;22.96;77.82
30347;BME280;19047;44.782;20.468;2022-09-09T05:02:45;100672.69;;;22.96;78.20
30347;BME280;19047;44.782;20.468;2022-09-09T05:06:19;100678.06;;;22.88;78.40
30347;BME280;19047;44.782;20.468;2022-09-09T05:09:39;100662.19;;;22.67;78.62
30347;BME280;19047;44.782;20.468;2022-09-09T05:13:11;100680.00;;;22.77;78.97
30347;BME280;19047;44.782;20.468;2022-09-09T05:16:29;100685.59;;;22.71;79.06
30347;BME280;19047;44.782;20.468;2022-09-09T05:19:59;100695.16;;;22.68;79.35
30347;BME280;19047;44.782;20.468;2022-09-09T05:23:16;100701.84;;;22.65;79.49
30347;BME280;19047;44.782;20.468;2022-09-09T05:26:46;100691.41;;;22.62;79.84
30347;BME280;19047;44.782;20.468;2022-09-09T05:30:04;100698.94;;;22.60;80.04
30347;BME280;19047;44.782;20.468;2022-09-09T05:33:35;100709.81;;;22.61;80.33
30347;BME280;19047;44.782;20.468;2022-09-09T05:36:52;100705.13;;;22.58;80.80
30347;BME280;19047;44.782;20.468;2022-09-09T05:40:22;100690.13;;;22.63;80.92
30347;BME280;19047;44.782;20.468;2022-09-09T05:43:41;100676.97;;;22.66;81.14
30347;BME280;19047;44.782;20.468;2022-09-09T05:47:12;100645.00;;;22.41;81.02
30347;BME280;19047;44.782;20.468;2022-09-09T05:50:29;100674.47;;;22.73;81.31
30347;BME280;19047;44.782;20.468;2022-09-09T05:54:00;100669.66;;;22.79;81.27
30347;BME280;19047;44.782;20.468;2022-09-09T05:57:21;100676.50;;;22.87;81.39
30347;BME280;19047;44.782;20.468;2022-09-09T06:00:51;100671.91;;;22.96;81.59
30347;BME280;19047;44.782;20.468;2022-09-09T06:04:09;100660.88;;;23.03;81.59
30347;BME280;19047;44.782;20.468;2022-09-09T06:07:39;100642.81;;;23.12;81.84
30347;BME280;19047;44.782;20.468;2022-09-09T06:11:03;100636.94;;;23.21;81.69
30347;BME280;19047;44.782;20.468;2022-09-09T06:14:33;100639.63;;;23.30;81.87
30347;BME280;19047;44.782;20.468;2022-09-09T06:17:54;100646.44;;;23.38;82.05
30347;BME280;19047;44.782;20.468;2022-09-09T06:21:28;100643.16;;;23.45;81.74
30347;BME280;19047;44.782;20.468;2022-09-09T06:24:48;100637.28;;;23.54;81.84
30347;BME280;19047;44.782;20.468;2022-09-09T06:28:18;100635.81;;;23.64;81.61
30347;BME280;19047;44.782;20.468;2022-09-09T06:31:36;100633.56;;;23.74;81.37
30347;BME280;19047;44.782;20.468;2022-09-09T06:35:11;100628.72;;;23.86;81.40
30347;BME280;19047;44.782;20.468;2022-09-09T06:38:29;100574.47;;;23.54;81.37
30347;BME280;19047;44.782;20.468;2022-09-09T06:42:01;100639.25;;;24.06;81.18
30347;BME280;19047;44.782;20.468;2022-09-09T06:45:33;100641.94;;;24.15;81.11
30347;BME280;19047;44.782;20.468;2022-09-09T06:49:07;100651.63;;;24.23;80.82
30347;BME280;19047;44.782;20.468;2022-09-09T06:52:24;100663.38;;;24.30;80.80
30347;BME280;19047;44.782;20.468;2022-09-09T06:55:55;100675.91;;;24.38;80.58
30347;BME280;19047;44.782;20.468;2022-09-09T06:59:14;100684.78;;;24.46;80.55
30347;BME280;19047;44.782;20.468;2022-09-09T07:02:44;100693.16;;;24.55;80.59
30347;BME280;19047;44.782;20.468;2022-09-09T07:06:09;100699.72;;;24.67;80.48
30347;BME280;19047;44.782;20.468;2022-09-09T07:09:43;100728.41;;;24.78;80.41
30347;BME280;19047;44.782;20.468;2022-09-09T07:13:01;100723.53;;;24.90;80.44
30347;BME280;19047;44.782;20.468;2022-09-09T07:16:33;100733.50;;;25.00;80.12
30347;BME280;19047;44.782;20.468;2022-09-09T07:19:51;100734.06;;;25.09;79.87
30347;BME280;19047;44.782;20.468;2022-09-09T07:23:23;100732.28;;;25.18;79.67
30347;BME280;19047;44.782;20.468;2022-09-09T07:26:39;100724.50;;;25.24;79.40
30347;BME280;19047;44.782;20.468;2022-09-09T07:30:11;100731.03;;;25.30;79.33
30347;BME280;19047;44.782;20.468;2022-09-09T07:33:42;100726.38;;;25.38;79.20
30347;BME280;19047;44.782;20.468;2022-09-09T07:36:58;100734.97;;;25.43;79.11
30347;BME280;19047;44.782;20.468;2022-09-09T07:40:35;100756.63;;;25.50;78.86
30347;BME280;19047;44.782;20.468;2022-09-09T07:43:54;100753.75;;;25.56;78.65
30347;BME280;19047;44.782;20.468;2022-09-09T07:47:27;100752.72;;;25.59;78.66
30347;BME280;19047;44.782;20.468;2022-09-09T07:50:47;100752.75;;;25.64;78.26
30347;BME280;19047;44.782;20.468;2022-09-09T07:54:18;100754.88;;;25.69;78.35
30347;BME280;19047;44.782;20.468;2022-09-09T07:57:40;100724.56;;;25.40;77.87
30347;BME280;19047;44.782;20.468;2022-09-09T08:01:13;100762.19;;;25.81;78.04
30347;BME280;19047;44.782;20.468;2022-09-09T08:04:30;100763.75;;;25.88;77.67
30347;BME280;19047;44.782;20.468;2022-09-09T08:07:59;100760.41;;;25.95;77.36
30347;BME280;19047;44.782;20.468;2022-09-09T08:11:17;100767.69;;;26.02;77.32
30347;BME280;19047;44.782;20.468;2022-09-09T08:14:47;100770.81;;;26.09;77.16
30347;BME280;19047;44.782;20.468;2022-09-09T08:18:06;100774.72;;;26.17;76.70
30347;BME280;19047;44.782;20.468;2022-09-09T08:21:36;100762.75;;;26.25;76.78
30347;BME280;19047;44.782;20.468;2022-09-09T08:24:54;100764.34;;;26.31;76.44
30347;BME280;19047;44.782;20.468;2022-09-09T08:28:29;100763.28;;;26.40;76.32
30347;BME280;19047;44.782;20.468;2022-09-09T08:31:49;100759.63;;;26.50;76.21
30347;BME280;19047;44.782;20.468;2022-09-09T08:35:21;100750.75;;;26.60;75.92
30347;BME280;19047;44.782;20.468;2022-09-09T08:38:38;100736.63;;;26.73;75.50
30347;BME280;19047;44.782;20.468;2022-09-09T08:46:01;100689.59;;;26.87;74.82
30347;BME280;19047;44.782;20.468;2022-09-09T08:49:58;100728.88;;;27.31;74.36
30347;BME280;19047;44.782;20.468;2022-09-09T08:53:23;100733.72;;;27.53;74.10
30347;BME280;19047;44.782;20.468;2022-09-09T08:56:57;100721.31;;;27.75;73.73
30347;BME280;19047;44.782;20.468;2022-09-09T09:00:14;100726.13;;;27.96;73.33
30347;BME280;19047;44.782;20.468;2022-09-09T09:10:50;100732.16;;;28.83;72.24
30347;BME280;19047;44.782;20.468;2022-09-09T09:14:29;100732.06;;;29.13;71.16
30347;BME280;19047;44.782;20.468;2022-09-09T09:18:03;100734.84;;;29.42;71.00
30347;BME280;19047;44.782;20.468;2022-09-09T09:21:42;100732.97;;;29.64;70.62
30347;BME280;19047;44.782;20.468;2022-09-09T09:28:31;100740.53;;;30.04;69.57
30347;BME280;19047;44.782;20.468;2022-09-09T09:32:07;100739.69;;;30.23;68.51
30347;BME280;19047;44.782;20.468;2022-09-09T09:35:29;100745.16;;;30.39;68.70
30347;BME280;19047;44.782;20.468;2022-09-09T09:39:04;100728.41;;;30.51;67.81
30347;BME280;19047;44.782;20.468;2022-09-09T09:42:27;100732.44;;;30.61;67.44
30347;BME280;19047;44.782;20.468;2022-09-09T09:46:05;100698.00;;;30.50;66.05
30347;BME280;19047;44.782;20.468;2022-09-09T09:49:38;100683.34;;;30.61;67.14
30347;BME280;19047;44.782;20.468;2022-09-09T09:53:17;100723.25;;;31.02;67.01
30347;BME280;19047;44.782;20.468;2022-09-09T09:56:38;100661.03;;;30.75;66.84
30347;BME280;19047;44.782;20.468;2022-09-09T10:03:51;100686.19;;;31.74;65.13
30347;BME280;19047;44.782;20.468;2022-09-09T10:07:23;100707.81;;;32.36;64.55
30347;BME280;19047;44.782;20.468;2022-09-09T10:18:04;100713.25;;;33.76;61.33
30347;BME280;19047;44.782;20.468;2022-09-09T10:25:37;100687.56;;;34.78;59.08
30347;BME280;19047;44.782;20.468;2022-09-09T10:33:32;100660.09;;;35.60;57.33
30347;BME280;19047;44.782;20.468;2022-09-09T10:45:23;100636.16;;;37.12;55.46
30347;BME280;19047;44.782;20.468;2022-09-09T10:53:10;100625.84;;;37.55;53.13
30347;BME280;19047;44.782;20.468;2022-09-09T10:56:44;100644.34;;;37.94;53.63
30347;BME280;19047;44.782;20.468;2022-09-09T11:00:15;100655.81;;;38.19;52.79
30347;BME280;19047;44.782;20.468;2022-09-09T11:03:52;100658.16;;;38.40;50.93
30347;BME280;19047;44.782;20.468;2022-09-09T11:07:16;100660.69;;;38.63;50.73
30347;BME280;19047;44.782;20.468;2022-09-09T11:11:16;100654.88;;;38.82;48.88
30347;BME280;19047;44.782;20.468;2022-09-09T11:18:10;100596.38;;;38.92;47.43
30347;BME280;19047;44.782;20.468;2022-09-09T11:21:46;100646.66;;;39.48;46.09
30347;BME280;19047;44.782;20.468;2022-09-09T11:25:21;100633.78;;;39.72;46.88
30347;BME280;19047;44.782;20.468;2022-09-09T11:37:03;100620.06;;;39.85;46.96
30347;BME280;19047;44.782;20.468;2022-09-09T11:40:41;100590.16;;;39.76;45.97
30347;BME280;19047;44.782;20.468;2022-09-09T11:43:59;100613.81;;;40.00;47.40
30347;BME280;19047;44.782;20.468;2022-09-09T11:47:30;100603.59;;;40.10;46.05
30347;BME280;19047;44.782;20.468;2022-09-09T11:51:01;100558.63;;;39.96;45.67
30347;BME280;19047;44.782;20.468;2022-09-09T11:54:50;100585.75;;;40.28;45.51
30347;BME280;19047;44.782;20.468;2022-09-09T11:58:17;100586.28;;;40.36;45.64
30347;BME280;19047;44.782;20.468;2022-09-09T12:02:00;100577.66;;;40.38;44.84
30347;BME280;19047;44.782;20.468;2022-09-09T12:05:19;100570.41;;;40.39;46.82
30347;BME280;19047;44.782;20.468;2022-09-09T12:08:58;100577.88;;;40.30;44.35
30347;BME280;19047;44.782;20.468;2022-09-09T12:12:41;100568.56;;;40.12;45.59
30347;BME280;19047;44.782;20.468;2022-09-09T12:16:33;100552.69;;;39.85;45.06
30347;BME280;19047;44.782;20.468;2022-09-09T12:20:18;100560.94;;;39.67;44.66
30347;BME280;19047;44.782;20.468;2022-09-09T12:23:58;100569.66;;;39.46;46.81
30347;BME280;19047;44.782;20.468;2022-09-09T12:27:49;100550.50;;;39.14;46.06
30347;BME280;19047;44.782;20.468;2022-09-09T12:32:00;100551.28;;;38.76;46.55
30347;BME280;19047;44.782;20.468;2022-09-09T12:35:28;100557.59;;;38.43;46.35
30347;BME280;19047;44.782;20.468;2022-09-09T12:39:18;100535.69;;;38.06;45.59
30347;BME280;19047;44.782;20.468;2022-09-09T12:42:39;100537.50;;;37.82;48.03
30347;BME280;19047;44.782;20.468;2022-09-09T12:46:20;100531.38;;;37.51;48.88
30347;BME280;19047;44.782;20.468;2022-09-09T12:49:38;100529.38;;;37.17;48.24
30347;BME280;19047;44.782;20.468;2022-09-09T12:53:17;100522.84;;;36.82;46.70
30347;BME280;19047;44.782;20.468;2022-09-09T12:56:39;100509.41;;;36.52;48.62
30347;BME280;19047;44.782;20.468;2022-09-09T13:00:21;100523.75;;;36.23;47.04
30347;BME280;19047;44.782;20.468;2022-09-09T13:03:43;100485.75;;;35.79;47.82
30347;BME280;19047;44.782;20.468;2022-09-09T13:07:14;100502.72;;;35.65;47.13
30347;BME280;19047;44.782;20.468;2022-09-09T13:10:36;100472.19;;;35.24;47.29
30347;BME280;19047;44.782;20.468;2022-09-09T13:14:19;100466.13;;;35.05;47.48
30347;BME280;19047;44.782;20.468;2022-09-09T13:17:50;100474.00;;;34.87;48.29
30347;BME280;19047;44.782;20.468;2022-09-09T13:21:36;100440.09;;;34.50;48.51
30347;BME280;19047;44.782;20.468;2022-09-09T13:25:18;100429.34;;;34.27;50.33
30347;BME280;19047;44.782;20.468;2022-09-09T13:28:52;100489.47;;;34.50;50.40
30347;BME280;19047;44.782;20.468;2022-09-09T13:32:16;100485.47;;;34.30;50.86
30347;BME280;19047;44.782;20.468;2022-09-09T13:35:50;100481.44;;;34.10;51.17
30347;BME280;19047;44.782;20.468;2022-09-09T13:39:15;100480.91;;;33.89;51.08
30347;BME280;19047;44.782;20.468;2022-09-09T13:42:46;100476.28;;;33.63;52.21
30347;BME280;19047;44.782;20.468;2022-09-09T13:46:45;100481.50;;;33.49;52.25
30347;BME280;19047;44.782;20.468;2022-09-09T13:49:57;100480.72;;;33.26;52.49
30347;BME280;19047;44.782;20.468;2022-09-09T13:53:21;100473.72;;;33.06;52.52
30347;BME280;19047;44.782;20.468;2022-09-09T13:56:52;100472.13;;;32.90;52.15
30347;BME280;19047;44.782;20.468;2022-09-09T14:00:10;100473.84;;;32.78;52.94
30347;BME280;19047;44.782;20.468;2022-09-09T14:03:42;100463.34;;;32.67;53.00
30347;BME280;19047;44.782;20.468;2022-09-09T14:06:59;100465.25;;;32.57;53.12
30347;BME280;19047;44.782;20.468;2022-09-09T14:10:31;100458.66;;;32.49;53.48
30347;BME280;19047;44.782;20.468;2022-09-09T14:13:48;100457.50;;;32.44;53.36
30347;BME280;19047;44.782;20.468;2022-09-09T14:17:19;100448.78;;;32.37;53.85
30347;BME280;19047;44.782;20.468;2022-09-09T14:20:36;100453.19;;;32.30;53.94
30347;BME280;19047;44.782;20.468;2022-09-09T14:24:06;100443.50;;;32.20;53.83
30347;BME280;19047;44.782;20.468;2022-09-09T14:27:25;100442.06;;;32.13;53.82
30347;BME280;19047;44.782;20.468;2022-09-09T14:30:58;100436.25;;;32.06;53.84
30347;BME280;19047;44.782;20.468;2022-09-09T14:34:15;100438.72;;;32.02;53.99
30347;BME280;19047;44.782;20.468;2022-09-09T14:37:46;100433.31;;;31.98;53.53
30347;BME280;19047;44.782;20.468;2022-09-09T14:41:02;100432.09;;;31.86;53.45
30347;BME280;19047;44.782;20.468;2022-09-09T14:44:34;100444.88;;;31.90;53.10
30347;BME280;19047;44.782;20.468;2022-09-09T14:47:51;100438.66;;;31.86;53.03
30347;BME280;19047;44.782;20.468;2022-09-09T14:51:25;100437.47;;;31.82;53.28
30347;BME280;19047;44.782;20.468;2022-09-09T14:54:46;100424.50;;;31.75;52.90
30347;BME280;19047;44.782;20.468;2022-09-09T14:58:17;100420.81;;;31.67;53.03
30347;BME280;19047;44.782;20.468;2022-09-09T15:01:34;100420.16;;;31.61;53.25
30347;BME280;19047;44.782;20.468;2022-09-09T15:05:06;100406.09;;;31.37;53.32
30347;BME280;19047;44.782;20.468;2022-09-09T15:08:23;100353.25;;;31.08;53.75
30347;BME280;19047;44.782;20.468;2022-09-09T15:11:58;100419.41;;;31.40;53.86
30347;BME280;19047;44.782;20.468;2022-09-09T15:15:15;100413.56;;;31.32;53.77
30347;BME280;19047;44.782;20.468;2022-09-09T15:18:49;100414.88;;;31.24;54.34
30347;BME280;19047;44.782;20.468;2022-09-09T15:22:07;100418.44;;;31.16;54.45
30347;BME280;19047;44.782;20.468;2022-09-09T15:25:38;100376.88;;;30.78;54.57
30347;BME280;19047;44.782;20.468;2022-09-09T15:29:04;100413.06;;;31.00;54.71
30347;BME280;19047;44.782;20.468;2022-09-09T15:32:36;100434.03;;;30.93;55.14
30347;BME280;19047;44.782;20.468;2022-09-09T15:35:53;100420.03;;;30.83;55.21
30347;BME280;19047;44.782;20.468;2022-09-09T15:39:24;100425.75;;;30.76;55.31
30347;BME280;19047;44.782;20.468;2022-09-09T15:42:41;100422.56;;;30.66;55.43
30347;BME280;19047;44.782;20.468;2022-09-09T15:49:36;100415.06;;;30.50;55.54
30347;BME280;19047;44.782;20.468;2022-09-09T15:53:07;100421.50;;;30.43;55.34
30347;BME280;19047;44.782;20.468;2022-09-09T15:56:27;100424.09;;;30.33;55.79
30347;BME280;19047;44.782;20.468;2022-09-09T15:59:58;100417.44;;;30.25;56.09
30347;BME280;19047;44.782;20.468;2022-09-09T16:03:16;100417.38;;;30.18;56.16
30347;BME280;19047;44.782;20.468;2022-09-09T16:06:47;100421.47;;;30.09;56.44
30347;BME280;19047;44.782;20.468;2022-09-09T16:10:05;100416.16;;;30.00;56.66
30347;BME280;19047;44.782;20.468;2022-09-09T16:13:36;100418.13;;;29.92;56.90
30347;BME280;19047;44.782;20.468;2022-09-09T16:16:53;100422.25;;;29.83;57.18
30347;BME280;19047;44.782;20.468;2022-09-09T16:20:23;100426.13;;;29.72;56.97
30347;BME280;19047;44.782;20.468;2022-09-09T16:23:43;100419.81;;;29.61;57.14
30347;BME280;19047;44.782;20.468;2022-09-09T16:27:18;100424.47;;;29.51;57.39
30347;BME280;19047;44.782;20.468;2022-09-09T16:30:36;100418.91;;;29.39;57.85
30347;BME280;19047;44.782;20.468;2022-09-09T16:34:08;100429.03;;;29.27;57.66
30347;BME280;19047;44.782;20.468;2022-09-09T16:37:25;100431.91;;;29.14;57.99
30347;BME280;19047;44.782;20.468;2022-09-09T16:40:58;100424.75;;;29.02;58.39
30347;BME280;19047;44.782;20.468;2022-09-09T16:44:17;100423.63;;;28.92;58.78
30347;BME280;19047;44.782;20.468;2022-09-09T16:47:49;100412.06;;;28.79;58.96
30347;BME280;19047;44.782;20.468;2022-09-09T16:51:09;100410.09;;;28.68;59.31
30347;BME280;19047;44.782;20.468;2022-09-09T16:54:41;100411.59;;;28.56;59.45
30347;BME280;19047;44.782;20.468;2022-09-09T16:57:58;100412.53;;;28.45;59.48
30347;BME280;19047;44.782;20.468;2022-09-09T17:01:28;100404.06;;;28.34;60.05
30347;BME280;19047;44.782;20.468;2022-09-09T17:04:45;100402.13;;;28.23;60.24
30347;BME280;19047;44.782;20.468;2022-09-09T17:08:16;100408.78;;;28.13;60.60
30347;BME280;19047;44.782;20.468;2022-09-09T17:11:39;100400.28;;;28.02;61.01
30347;BME280;19047;44.782;20.468;2022-09-09T17:15:11;100411.41;;;27.92;61.47
30347;BME280;19047;44.782;20.468;2022-09-09T17:18:28;100408.13;;;27.82;61.47
30347;BME280;19047;44.782;20.468;2022-09-09T17:22:00;100396.75;;;27.71;61.87
30347;BME280;19047;44.782;20.468;2022-09-09T17:25:17;100395.81;;;27.63;62.17
30347;BME280;19047;44.782;20.468;2022-09-09T17:28:49;100397.75;;;27.55;62.22
30347;BME280;19047;44.782;20.468;2022-09-09T17:32:06;100408.78;;;27.45;62.26
30347;BME280;19047;44.782;20.468;2022-09-09T17:35:37;100375.38;;;27.18;62.51
30347;BME280;19047;44.782;20.468;2022-09-09T17:38:54;100397.69;;;27.31;62.75
30347;BME280;19047;44.782;20.468;2022-09-09T17:42:25;100397.78;;;27.25;63.08
30347;BME280;19047;44.782;20.468;2022-09-09T17:45:42;100351.91;;;26.84;63.20
30347;BME280;19047;44.782;20.468;2022-09-09T17:49:18;100404.41;;;27.14;63.38
30347;BME280;19047;44.782;20.468;2022-09-09T17:52:38;100408.88;;;27.10;63.49
30347;BME280;19047;44.782;20.468;2022-09-09T17:56:09;100427.16;;;27.07;63.86
30347;BME280;19047;44.782;20.468;2022-09-09T17:59:26;100430.34;;;27.03;63.78
30347;BME280;19047;44.782;20.468;2022-09-09T18:02:57;100444.97;;;27.00;64.06
30347;BME280;19047;44.782;20.468;2022-09-09T18:06:16;100442.66;;;26.98;64.13
30347;BME280;19047;44.782;20.468;2022-09-09T18:09:47;100423.97;;;26.80;64.11
30347;BME280;19047;44.782;20.468;2022-09-09T18:13:08;100446.81;;;26.97;64.50
30347;BME280;19047;44.782;20.468;2022-09-09T18:16:41;100447.34;;;26.96;64.61
30347;BME280;19047;44.782;20.468;2022-09-09T18:20:00;100398.06;;;26.56;64.50
30347;BME280;19047;44.782;20.468;2022-09-09T18:23:29;100443.72;;;26.89;64.73
30347;BME280;19047;44.782;20.468;2022-09-09T18:26:46;100439.84;;;26.93;64.63
30347;BME280;19047;44.782;20.468;2022-09-09T18:30:17;100450.53;;;26.92;64.84
30347;BME280;19047;44.782;20.468;2022-09-09T18:33:36;100451.81;;;26.91;65.20
30347;BME280;19047;44.782;20.468;2022-09-09T18:37:07;100462.53;;;26.90;65.08
30347;BME280;19047;44.782;20.468;2022-09-09T18:40:38;100455.22;;;26.89;65.19
30347;BME280;19047;44.782;20.468;2022-09-09T18:43:59;100453.66;;;26.88;65.43
30347;BME280;19047;44.782;20.468;2022-09-09T18:47:34;100459.41;;;26.88;65.23
30347;BME280;19047;44.782;20.468;2022-09-09T18:50:51;100458.88;;;26.90;65.52
30347;BME280;19047;44.782;20.468;2022-09-09T18:54:26;100458.88;;;26.90;65.54
30347;BME280;19047;44.782;20.468;2022-09-09T18:57:45;100467.47;;;26.90;65.51
30347;BME280;19047;44.782;20.468;2022-09-09T19:01:16;100462.25;;;26.88;65.63
30347;BME280;19047;44.782;20.468;2022-09-09T19:04:33;100465.13;;;26.88;65.97
30347;BME280;19047;44.782;20.468;2022-09-09T19:08:04;100479.25;;;26.86;66.44
30347;BME280;19047;44.782;20.468;2022-09-09T19:11:21;100481.38;;;26.80;66.95
30347;BME280;19047;44.782;20.468;2022-09-09T19:14:52;100480.63;;;26.74;67.38
30347;BME280;19047;44.782;20.468;2022-09-09T19:18:09;100488.78;;;26.65;67.87
30347;BME280;19047;44.782;20.468;2022-09-09T19:21:40;100484.66;;;26.54;68.47